Time;durP1;ratioP1;P1;durP2;ratioP2;P2;SDS_P1;SDS_P2;PMS_P1;PMS_P2;Temp;Humidity;BMP_temperature;BMP_pressure;BME280_temperature;BME280_humidity;BME280_pressure;Samples;Min_cycle;Max_cycle;Signal;HPM_P1;HPM_P2
2024/01/24 00:01:03;;;;;;;39.35;7.10;;;;;;;;;;4984275;28;20042;-66
2024/01/24 00:03:29;;;;;;;39.65;6.68;;;;;;;;;;4987631;28;20046;-66
2024/01/24 00:05:55;;;;;;;38.25;6.28;;;;;;;;;;4988518;28;20129;-66
2024/01/24 00:08:21;;;;;;;40.85;6.72;;;;;;;;;;4991302;28;20046;-66
2024/01/24 00:10:47;;;;;;;49.30;6.80;;;;;;;;;;5005947;28;20436;-66
2024/01/24 00:13:14;;;;;;;32.85;5.40;;;;;;;;;;5007489;28;20466;-66
2024/01/24 00:15:40;;;;;;;38.50;6.40;;;;;;;;;;4990786;28;20084;-66
2024/01/24 00:18:06;;;;;;;30.77;5.68;;;;;;;;;;4996686;28;20067;-66
2024/01/24 00:20:32;;;;;;;36.75;6.15;;;;;;;;;;5001013;28;20038;-66
2024/01/24 00:22:59;;;;;;;33.15;5.65;;;;;;;;;;5006032;28;20125;-66
2024/01/24 00:25:25;;;;;;;39.50;6.47;;;;;;;;;;4999741;28;20053;-66
2024/01/24 00:27:51;;;;;;;34.25;5.25;;;;;;;;;;4999030;28;20082;-66
2024/01/24 00:30:17;;;;;;;36.17;5.45;;;;;;;;;;5011223;28;20129;-66
2024/01/24 00:32:44;;;;;;;34.90;5.88;;;;;;;;;;5010642;28;20493;-66
2024/01/24 00:35:10;;;;;;;31.63;7.25;;;;;;;;;;5010329;28;20128;-66
2024/01/24 00:37:36;;;;;;;36.60;5.15;;;;;;;;;;4995920;28;20038;-66
2024/01/24 00:40:03;;;;;;;30.92;5.22;;;;;;;;;;5012384;28;20046;-66
2024/01/24 00:42:29;;;;;;;34.38;6.00;;;;;;;;;;4994841;28;20421;-66
2024/01/24 00:44:55;;;;;;;33.95;6.20;;;;;;;;;;4999208;28;20506;-66
2024/01/24 00:47:22;;;;;;;36.63;5.30;;;;;;;;;;5000146;28;20103;-66
2024/01/24 00:49:48;;;;;;;31.58;5.50;;;;;;;;;;5013271;28;20037;-66
2024/01/24 00:52:14;;;;;;;41.42;7.13;;;;;;;;;;5013141;28;20124;-66
2024/01/24 00:54:40;;;;;;;34.35;6.18;;;;;;;;;;5003177;28;20061;-66
2024/01/24 00:57:07;;;;;;;43.67;5.85;;;;;;;;;;4989220;28;20042;-66
2024/01/24 00:59:33;;;;;;;47.15;6.53;;;;;;;;;;4992051;28;20561;-66
2024/01/24 01:01:59;;;;;;;35.78;5.22;;;;;;;;;;5008611;28;20038;-66
2024/01/24 01:04:25;;;;;;;38.65;5.90;;;;;;;;;;4998449;28;20050;-66
2024/01/24 01:06:52;;;;;;;36.40;6.45;;;;;;;;;;5001545;28;20038;-66
2024/01/24 01:09:18;;;;;;;44.60;5.82;;;;;;;;;;4985835;28;20504;-66
2024/01/24 01:11:44;;;;;;;37.50;6.00;;;;;;;;;;5006313;28;20041;-65
2024/01/24 01:14:10;;;;;;;43.05;6.85;;;;;;;;;;5010552;28;20067;-66
2024/01/24 01:16:37;;;;;;;32.80;4.97;;;;;;;;;;5001513;28;20484;-66
2024/01/24 01:19:03;;;;;;;36.97;7.72;;;;;;;;;;5014542;28;20044;-66
2024/01/24 01:21:29;;;;;;;29.50;5.60;;;;;;;;;;5014892;28;20138;-66
2024/01/24 01:23:55;;;;;;;37.08;5.03;;;;;;;;;;4973685;28;20485;-66
2024/01/24 01:26:21;;;;;;;26.85;6.03;;;;;;;;;;5007565;28;20061;-65
2024/01/24 01:28:47;;;;;;;31.05;4.80;;;;;;;;;;4990334;28;20446;-66
2024/01/24 01:31:14;;;;;;;28.48;5.03;;;;;;;;;;4992434;28;20049;-66
2024/01/24 01:33:40;;;;;;;32.95;5.65;;;;;;;;;;4979112;28;20125;-66
2024/01/24 01:36:06;;;;;;;23.42;5.00;;;;;;;;;;5001061;28;20473;-66
2024/01/24 01:38:32;;;;;;;24.75;4.22;;;;;;;;;;4992946;28;20457;-66
2024/01/24 01:40:58;;;;;;;25.00;4.07;;;;;;;;;;4992987;28;20042;-65
2024/01/24 01:43:25;;;;;;;22.77;4.80;;;;;;;;;;5009093;28;20076;-66
2024/01/24 01:45:57;;;;;;;22.75;4.07;;;;;;;;;;4984830;28;20076;-66
2024/01/24 01:48:24;;;;;;;28.27;5.75;;;;;;;;;;4983791;28;20131;-66
2024/01/24 01:50:50;;;;;;;23.88;4.47;;;;;;;;;;4998796;28;20042;-66
2024/01/24 01:53:16;;;;;;;20.00;3.30;;;;;;;;;;4987511;28;20042;-66
2024/01/24 01:55:43;;;;;;;23.83;4.43;;;;;;;;;;4986339;28;20046;-66
2024/01/24 01:58:09;;;;;;;26.95;3.90;;;;;;;;;;4981451;28;20040;-66
2024/01/24 02:00:35;;;;;;;23.50;3.80;;;;;;;;;;4995436;28;20252;-66
2024/01/24 02:03:01;;;;;;;25.10;3.78;;;;;;;;;;4998706;28;20481;-66
2024/01/24 02:05:27;;;;;;;19.80;3.50;;;;;;;;;;4989414;28;20061;-66
2024/01/24 02:07:53;;;;;;;21.63;3.97;;;;;;;;;;4982284;28;20065;-66
2024/01/24 02:10:20;;;;;;;20.40;5.57;;;;;;;;;;4991254;28;20117;-66
2024/01/24 02:12:46;;;;;;;20.38;3.88;;;;;;;;;;4990548;28;20053;-66
2024/01/24 02:15:12;;;;;;;27.60;3.88;;;;;;;;;;4997216;28;20038;-66
2024/01/24 02:17:39;;;;;;;30.65;4.75;;;;;;;;;;4992628;28;20391;-66
2024/01/24 02:20:09;;;;;;;22.85;4.15;;;;;;;;;;4986303;28;20038;-66
2024/01/24 02:22:36;;;;;;;18.70;4.35;;;;;;;;;;5000201;28;20128;-66
2024/01/24 02:25:02;;;;;;;26.58;3.97;;;;;;;;;;4978604;28;20049;-66
2024/01/24 02:27:28;;;;;;;24.30;4.88;;;;;;;;;;4965312;28;20053;-66
2024/01/24 02:29:57;;;;;;;22.95;4.15;;;;;;;;;;5003695;28;20118;-66
2024/01/24 02:32:23;;;;;;;28.65;3.85;;;;;;;;;;4987239;28;20115;-66
2024/01/24 02:34:49;;;;;;;17.77;4.28;;;;;;;;;;4997779;28;20193;-66
2024/01/24 02:37:16;;;;;;;21.10;4.35;;;;;;;;;;5004333;28;20091;-66
2024/01/24 02:39:42;;;;;;;23.02;4.22;;;;;;;;;;4990404;28;20060;-66
2024/01/24 02:42:08;;;;;;;20.58;3.63;;;;;;;;;;5004826;28;20069;-66
2024/01/24 02:44:34;;;;;;;12.75;3.15;;;;;;;;;;4990209;28;20120;-66
2024/01/24 02:47:01;;;;;;;17.45;3.92;;;;;;;;;;4987885;28;20057;-66
2024/01/24 02:49:27;;;;;;;20.20;3.42;;;;;;;;;;4999795;28;20046;-66
2024/01/24 02:51:53;;;;;;;21.52;4.68;;;;;;;;;;4977864;28;20054;-66
2024/01/24 02:54:19;;;;;;;25.98;4.50;;;;;;;;;;4984860;28;20064;-66
2024/01/24 02:56:45;;;;;;;25.58;4.40;;;;;;;;;;5000906;28;20038;-66
2024/01/24 02:59:11;;;;;;;28.20;4.10;;;;;;;;;;4989358;28;20132;-66
2024/01/24 03:01:39;;;;;;;21.65;3.72;;;;;;;;;;4990898;28;20047;-66
2024/01/24 03:04:07;;;;;;;29.10;6.35;;;;;;;;;;4991596;28;20093;-66
2024/01/24 03:06:33;;;;;;;21.70;4.18;;;;;;;;;;4991652;28;20512;-66
2024/01/24 03:08:59;;;;;;;24.63;4.47;;;;;;;;;;4992227;28;20054;-66
2024/01/24 03:11:28;;;;;;;27.33;4.57;;;;;;;;;;4992263;28;20061;-66
2024/01/24 03:13:54;;;;;;;24.83;4.93;;;;;;;;;;5011779;28;20037;-66
2024/01/24 03:16:20;;;;;;;18.48;3.90;;;;;;;;;;4998411;28;20041;-66
2024/01/24 03:18:47;;;;;;;36.97;6.80;;;;;;;;;;5000432;28;20049;-66
2024/01/24 03:21:16;;;;;;;20.50;5.38;;;;;;;;;;4998754;28;20122;-66
2024/01/24 03:23:42;;;;;;;28.10;4.65;;;;;;;;;;4997854;28;20049;-66
2024/01/24 03:26:08;;;;;;;28.48;4.80;;;;;;;;;;4997112;28;20053;-66
2024/01/24 03:28:35;;;;;;;26.48;5.65;;;;;;;;;;5011636;28;20494;-66
2024/01/24 03:31:01;;;;;;;24.50;5.55;;;;;;;;;;4999506;28;20054;-66
2024/01/24 03:33:28;;;;;;;36.78;5.90;;;;;;;;;;4992991;28;20512;-66
2024/01/24 03:35:54;;;;;;;26.75;4.25;;;;;;;;;;5016894;28;20041;-66
2024/01/24 03:38:20;;;;;;;29.35;5.93;;;;;;;;;;5003581;28;20448;-66
2024/01/24 03:40:47;;;;;;;25.00;5.60;;;;;;;;;;5003922;28;20425;-66
2024/01/24 03:43:13;;;;;;;27.27;5.20;;;;;;;;;;4989195;28;20128;-66
2024/01/24 03:45:39;;;;;;;24.20;5.25;;;;;;;;;;4982276;28;20427;-66
2024/01/24 03:48:06;;;;;;;34.67;4.90;;;;;;;;;;4983170;28;20189;-66
2024/01/24 03:50:33;;;;;;;27.38;4.82;;;;;;;;;;4995764;28;20038;-66
2024/01/24 03:53:01;;;;;;;31.10;6.22;;;;;;;;;;4978805;28;20046;-66
2024/01/24 03:55:28;;;;;;;29.70;5.28;;;;;;;;;;4998168;28;20046;-66
2024/01/24 03:57:55;;;;;;;27.70;5.10;;;;;;;;;;4982866;28;20451;-66
2024/01/24 04:00:21;;;;;;;28.65;5.65;;;;;;;;;;4983838;28;20049;-66
2024/01/24 04:02:47;;;;;;;27.95;5.57;;;;;;;;;;4981029;28;20172;-66
2024/01/24 04:05:14;;;;;;;36.22;6.55;;;;;;;;;;5001577;28;20135;-66
2024/01/24 04:07:41;;;;;;;32.88;5.72;;;;;;;;;;4979212;28;20046;-66
2024/01/24 04:10:07;;;;;;;21.13;4.47;;;;;;;;;;4996231;28;20049;-66
2024/01/24 04:12:33;;;;;;;38.78;6.28;;;;;;;;;;4980839;28;20049;-66
2024/01/24 04:14:59;;;;;;;30.90;7.18;;;;;;;;;;4995859;28;20048;-66
2024/01/24 04:17:26;;;;;;;37.13;7.18;;;;;;;;;;4998274;28;20742;-66
2024/01/24 04:19:52;;;;;;;38.15;6.20;;;;;;;;;;4997170;28;20394;-66
2024/01/24 04:22:18;;;;;;;35.35;6.25;;;;;;;;;;4985935;28;20050;-66
2024/01/24 04:24:45;;;;;;;31.95;6.68;;;;;;;;;;4986711;28;20479;-66
2024/01/24 04:27:11;;;;;;;34.17;6.35;;;;;;;;;;4991259;28;20058;-66
2024/01/24 04:29:37;;;;;;;38.55;7.05;;;;;;;;;;4980091;28;20058;-66
2024/01/24 04:32:04;;;;;;;32.83;6.25;;;;;;;;;;4976961;28;20050;-66
2024/01/24 04:34:30;;;;;;;39.05;6.97;;;;;;;;;;4993965;28;20092;-66
2024/01/24 04:36:56;;;;;;;36.00;7.30;;;;;;;;;;4984379;28;20045;-66
2024/01/24 04:39:22;;;;;;;38.67;6.90;;;;;;;;;;4995696;28;20041;-66
2024/01/24 04:41:49;;;;;;;43.85;7.72;;;;;;;;;;4978534;28;21466;-66
2024/01/24 04:44:15;;;;;;;47.63;6.88;;;;;;;;;;4998697;28;20104;-66
2024/01/24 04:46:41;;;;;;;38.13;7.13;;;;;;;;;;4989004;28;20036;-66
2024/01/24 04:49:08;;;;;;;49.75;9.43;;;;;;;;;;4991536;28;20136;-66
2024/01/24 04:51:35;;;;;;;46.38;8.90;;;;;;;;;;4985469;28;20050;-66
2024/01/24 04:54:01;;;;;;;52.75;9.35;;;;;;;;;;5005182;28;20120;-66
2024/01/24 04:56:28;;;;;;;38.78;7.80;;;;;;;;;;4985003;28;20463;-66
2024/01/24 04:58:54;;;;;;;44.90;7.85;;;;;;;;;;4985818;28;20401;-66
2024/01/24 05:01:20;;;;;;;34.63;7.18;;;;;;;;;;4985021;28;20044;-66
2024/01/24 05:03:47;;;;;;;41.42;8.15;;;;;;;;;;4983707;28;20517;-66
2024/01/24 05:06:13;;;;;;;53.85;9.07;;;;;;;;;;4985019;28;20042;-66
2024/01/24 05:08:39;;;;;;;48.10;9.50;;;;;;;;;;4998506;28;20054;-66
2024/01/24 05:11:05;;;;;;;45.97;9.20;;;;;;;;;;5006496;28;20120;-66
2024/01/24 05:13:32;;;;;;;41.97;8.15;;;;;;;;;;4995779;28;20436;-66
2024/01/24 05:15:59;;;;;;;48.55;8.95;;;;;;;;;;5004106;28;20046;-66
2024/01/24 05:18:25;;;;;;;45.83;8.88;;;;;;;;;;4996631;28;20093;-66
2024/01/24 05:20:51;;;;;;;46.30;10.18;;;;;;;;;;4998238;28;20482;-66
2024/01/24 05:23:17;;;;;;;54.17;10.18;;;;;;;;;;5004703;28;20045;-66
2024/01/24 05:25:44;;;;;;;51.58;10.57;;;;;;;;;;4994779;28;20081;-66
2024/01/24 05:28:11;;;;;;;54.75;9.70;;;;;;;;;;5015294;28;20057;-66
2024/01/24 05:30:37;;;;;;;58.28;10.57;;;;;;;;;;4996284;28;20042;-66
2024/01/24 05:33:04;;;;;;;59.25;10.20;;;;;;;;;;5016995;28;20455;-66
2024/01/24 05:35:30;;;;;;;67.13;9.95;;;;;;;;;;5000379;28;20449;-66
2024/01/24 05:37:56;;;;;;;56.22;9.10;;;;;;;;;;4998604;28;20042;-66
2024/01/24 05:40:23;;;;;;;51.67;10.27;;;;;;;;;;5003957;28;20045;-66
2024/01/24 05:42:49;;;;;;;74.28;13.73;;;;;;;;;;5002022;28;20046;-66
2024/01/24 05:45:15;;;;;;;55.53;10.02;;;;;;;;;;4995025;28;20047;-66
2024/01/24 05:47:43;;;;;;;61.75;11.90;;;;;;;;;;5006385;28;20144;-66
2024/01/24 05:50:15;;;;;;;57.92;11.85;;;;;;;;;;5007053;28;20095;-66
2024/01/24 05:52:41;;;;;;;54.90;11.65;;;;;;;;;;4990624;28;20053;-66
2024/01/24 05:55:09;;;;;;;52.20;9.63;;;;;;;;;;4997024;28;20046;-66
2024/01/24 05:57:39;;;;;;;51.17;9.77;;;;;;;;;;4976703;28;20086;-66
2024/01/24 06:00:08;;;;;;;43.92;8.50;;;;;;;;;;4992096;28;20389;-66
2024/01/24 06:02:35;;;;;;;48.83;10.23;;;;;;;;;;4982067;28;20053;-66
2024/01/24 06:05:01;;;;;;;61.15;9.88;;;;;;;;;;4985940;28;20053;-66
2024/01/24 06:07:28;;;;;;;45.83;8.43;;;;;;;;;;5006144;28;20129;-66
2024/01/24 06:09:54;;;;;;;50.08;9.38;;;;;;;;;;4985378;28;20105;-66
2024/01/24 06:12:20;;;;;;;58.78;9.65;;;;;;;;;;4987579;28;20445;-66
2024/01/24 06:14:46;;;;;;;54.80;9.55;;;;;;;;;;4995653;28;20476;-66
2024/01/24 06:17:13;;;;;;;59.90;10.35;;;;;;;;;;5009357;28;20090;-66
2024/01/24 06:19:39;;;;;;;59.40;11.75;;;;;;;;;;4989529;28;20463;-66
2024/01/24 06:22:05;;;;;;;50.65;12.23;;;;;;;;;;4988732;28;20041;-66
2024/01/24 06:24:32;;;;;;;52.67;9.45;;;;;;;;;;4989757;28;21392;-66
2024/01/24 06:26:58;;;;;;;58.53;10.40;;;;;;;;;;4971979;28;20094;-66
2024/01/24 06:29:24;;;;;;;49.30;9.80;;;;;;;;;;4999278;28;20546;-66
2024/01/24 06:31:50;;;;;;;59.05;10.77;;;;;;;;;;4983549;28;20136;-66
2024/01/24 06:34:16;;;;;;;57.00;10.25;;;;;;;;;;4996332;28;20474;-66
2024/01/24 06:36:42;;;;;;;53.35;9.10;;;;;;;;;;4985663;28;20045;-66
2024/01/24 06:39:09;;;;;;;46.70;9.63;;;;;;;;;;4972981;28;20129;-66
2024/01/24 06:41:36;;;;;;;49.28;8.77;;;;;;;;;;4989825;28;20383;-66
2024/01/24 06:44:05;;;;;;;44.58;10.32;;;;;;;;;;4991363;28;20077;-66
2024/01/24 06:46:31;;;;;;;52.40;11.77;;;;;;;;;;4988647;28;20101;-66
2024/01/24 06:48:58;;;;;;;61.88;10.73;;;;;;;;;;5001512;28;20074;-66
2024/01/24 06:51:24;;;;;;;52.88;9.93;;;;;;;;;;4996651;28;20056;-66
2024/01/24 06:53:50;;;;;;;47.38;9.77;;;;;;;;;;4973897;28;20414;-66
2024/01/24 06:56:17;;;;;;;60.00;10.30;;;;;;;;;;4970994;28;20133;-66
2024/01/24 06:58:44;;;;;;;59.30;11.38;;;;;;;;;;4986231;28;20082;-67
2024/01/24 07:01:11;;;;;;;55.08;9.57;;;;;;;;;;4973454;28;20469;-67
2024/01/24 07:03:37;;;;;;;43.72;8.77;;;;;;;;;;4998991;28;20141;-66
2024/01/24 07:06:05;;;;;;;50.65;9.65;;;;;;;;;;4990215;28;20045;-67
2024/01/24 07:08:31;;;;;;;47.40;9.15;;;;;;;;;;4983898;28;20409;-67
2024/01/24 07:10:57;;;;;;;51.88;9.68;;;;;;;;;;4998782;28;20511;-66
2024/01/24 07:13:23;;;;;;;47.67;8.23;;;;;;;;;;4992149;28;20046;-66
2024/01/24 07:15:50;;;;;;;55.38;9.80;;;;;;;;;;5012524;28;21589;-66
2024/01/24 07:18:16;;;;;;;58.50;9.13;;;;;;;;;;5003607;28;20458;-66
2024/01/24 07:20:43;;;;;;;56.08;8.27;;;;;;;;;;4972235;28;20137;-66
2024/01/24 07:23:09;;;;;;;51.72;10.60;;;;;;;;;;4987273;28;20456;-66
2024/01/24 07:25:35;;;;;;;52.65;9.05;;;;;;;;;;4985469;28;20133;-66
2024/01/24 07:28:01;;;;;;;52.42;11.02;;;;;;;;;;4987298;28;20508;-66
2024/01/24 07:30:28;;;;;;;40.15;8.38;;;;;;;;;;4985404;28;22007;-67
2024/01/24 07:32:54;;;;;;;63.20;12.38;;;;;;;;;;4998776;28;20129;-67
2024/01/24 07:35:20;;;;;;;56.03;11.85;;;;;;;;;;4998535;28;20414;-66
2024/01/24 07:37:47;;;;;;;56.38;9.55;;;;;;;;;;4982464;28;20057;-66
2024/01/24 07:40:14;;;;;;;53.95;10.30;;;;;;;;;;4984281;28;20053;-67
2024/01/24 07:42:42;;;;;;;40.20;8.27;;;;;;;;;;4980342;28;20046;-66
2024/01/24 07:45:09;;;;;;;45.95;8.02;;;;;;;;;;4993155;28;20057;-66
2024/01/24 07:47:35;;;;;;;48.35;9.35;;;;;;;;;;4975760;28;20107;-66
2024/01/24 07:50:03;;;;;;;51.20;9.35;;;;;;;;;;4998831;28;20133;-66
2024/01/24 07:52:29;;;;;;;55.50;9.88;;;;;;;;;;4990991;28;20074;-66
2024/01/24 07:54:55;;;;;;;53.13;9.50;;;;;;;;;;4988777;28;20390;-66
2024/01/24 07:57:21;;;;;;;45.60;10.93;;;;;;;;;;4965615;28;21521;-71
2024/01/24 07:59:47;;;;;;;48.08;9.52;;;;;;;;;;4981542;28;20042;-66
2024/01/24 08:02:14;;;;;;;52.88;9.65;;;;;;;;;;4975652;28;20050;-66
2024/01/24 08:04:40;;;;;;;57.55;10.95;;;;;;;;;;4997022;28;20486;-65
2024/01/24 08:07:06;;;;;;;54.13;11.02;;;;;;;;;;4997532;28;20070;-65
2024/01/24 08:09:34;;;;;;;55.60;10.70;;;;;;;;;;5002202;28;20046;-65
2024/01/24 08:12:00;;;;;;;54.03;9.60;;;;;;;;;;4984343;28;20050;-65
2024/01/24 08:14:26;;;;;;;53.75;8.50;;;;;;;;;;4995193;28;20056;-66
2024/01/24 08:17:02;;;;;;;49.67;9.70;;;;;;;;;;4985942;28;20069;-66
2024/01/24 08:19:29;;;;;;;49.47;9.02;;;;;;;;;;4983234;28;20116;-65
2024/01/24 08:21:55;;;;;;;48.15;9.75;;;;;;;;;;4980750;28;20042;-65
2024/01/24 08:24:21;;;;;;;50.55;8.75;;;;;;;;;;4995794;28;20057;-65
2024/01/24 08:26:48;;;;;;;45.67;8.48;;;;;;;;;;4994204;28;20042;-67
2024/01/24 08:29:15;;;;;;;57.58;9.73;;;;;;;;;;4985686;28;20170;-75
2024/01/24 08:31:43;;;;;;;59.63;9.88;;;;;;;;;;5001011;28;20437;-66
2024/01/24 08:34:09;;;;;;;48.20;11.00;;;;;;;;;;5003944;28;20394;-66
2024/01/24 08:36:35;;;;;;;50.35;9.30;;;;;;;;;;5006943;28;20433;-66
2024/01/24 08:39:05;;;;;;;43.80;9.85;;;;;;;;;;5003215;28;20122;-66
2024/01/24 08:41:32;;;;;;;56.03;10.50;;;;;;;;;;5003764;28;20046;-66
2024/01/24 08:43:59;;;;;;;44.50;8.90;;;;;;;;;;4992314;28;20045;-66
2024/01/24 08:46:25;;;;;;;40.03;7.65;;;;;;;;;;4991224;28;20048;-66
2024/01/24 08:48:51;;;;;;;60.08;10.88;;;;;;;;;;4991066;28;20144;-66
2024/01/24 08:51:18;;;;;;;59.17;11.77;;;;;;;;;;5007671;28;20033;-66
2024/01/24 08:53:44;;;;;;;54.22;9.65;;;;;;;;;;5005854;28;20128;-66
2024/01/24 08:56:10;;;;;;;57.20;10.02;;;;;;;;;;4981569;28;20987;-66
2024/01/24 08:58:37;;;;;;;78.03;11.70;;;;;;;;;;5003454;28;20080;-67
2024/01/24 09:01:03;;;;;;;53.15;10.25;;;;;;;;;;4969907;28;20482;-67
2024/01/24 09:03:30;;;;;;;57.65;10.90;;;;;;;;;;4994647;28;20320;-66
2024/01/24 09:05:56;;;;;;;51.88;10.30;;;;;;;;;;4991190;28;20042;-67
2024/01/24 09:08:22;;;;;;;52.22;10.13;;;;;;;;;;5001182;28;20038;-67
2024/01/24 09:10:48;;;;;;;47.20;10.32;;;;;;;;;;4971428;28;20054;-66
2024/01/24 09:13:20;;;;;;;53.30;9.60;;;;;;;;;;5000936;28;20054;-66
2024/01/24 09:15:47;;;;;;;53.30;10.85;;;;;;;;;;4997567;28;20050;-66
2024/01/24 09:18:13;;;;;;;51.45;10.73;;;;;;;;;;4988949;28;20056;-66
2024/01/24 09:20:40;;;;;;;56.15;11.48;;;;;;;;;;4988981;28;20148;-66
2024/01/24 09:23:06;;;;;;;56.65;10.93;;;;;;;;;;5001481;28;20046;-65
2024/01/24 09:25:32;;;;;;;58.55;10.70;;;;;;;;;;4988314;28;20520;-65
2024/01/24 09:27:58;;;;;;;51.67;12.55;;;;;;;;;;5003911;28;20038;-65
2024/01/24 09:30:25;;;;;;;49.33;9.73;;;;;;;;;;4976145;28;20072;-66
2024/01/24 09:32:51;;;;;;;48.92;11.40;;;;;;;;;;5001103;28;20398;-66
2024/01/24 09:35:18;;;;;;;51.33;9.10;;;;;;;;;;4998433;28;20046;-66
2024/01/24 09:37:44;;;;;;;55.97;9.95;;;;;;;;;;5004885;28;20076;-71
2024/01/24 09:40:12;;;;;;;41.53;8.52;;;;;;;;;;4989264;28;20054;-66
2024/01/24 09:42:41;;;;;;;45.60;8.82;;;;;;;;;;4988743;28;20048;-66
2024/01/24 09:45:08;;;;;;;48.22;9.10;;;;;;;;;;4995079;28;20494;-66
2024/01/24 09:47:35;;;;;;;49.45;10.32;;;;;;;;;;4977762;28;20495;-66
2024/01/24 09:50:07;;;;;;;48.80;10.57;;;;;;;;;;4997964;28;20097;-66
2024/01/24 09:52:34;;;;;;;60.97;9.18;;;;;;;;;;5002209;28;20742;-66
2024/01/24 09:55:04;;;;;;;47.38;9.93;;;;;;;;;;4991287;28;20060;-66
2024/01/24 09:57:31;;;;;;;48.45;9.55;;;;;;;;;;4994800;28;20149;-66
2024/01/24 09:59:57;;;;;;;46.55;9.85;;;;;;;;;;5005735;28;20044;-66
2024/01/24 10:02:27;;;;;;;50.45;9.10;;;;;;;;;;4988312;28;20058;-66
2024/01/24 10:04:54;;;;;;;44.40;9.00;;;;;;;;;;4987362;28;20045;-67
2024/01/24 10:07:20;;;;;;;46.75;8.82;;;;;;;;;;4987785;28;20533;-66
2024/01/24 10:09:47;;;;;;;46.80;8.90;;;;;;;;;;4989469;28;20096;-66
2024/01/24 10:12:13;;;;;;;49.50;8.85;;;;;;;;;;4999655;28;20058;-66
2024/01/24 10:14:41;;;;;;;44.58;8.30;;;;;;;;;;4995793;28;20146;-66
2024/01/24 10:17:11;;;;;;;46.80;10.65;;;;;;;;;;5005684;28;20200;-66
2024/01/24 10:19:37;;;;;;;44.47;8.75;;;;;;;;;;5003153;28;20056;-66
2024/01/24 10:22:03;;;;;;;41.55;7.80;;;;;;;;;;5003510;28;20470;-66
2024/01/24 10:24:33;;;;;;;53.03;8.68;;;;;;;;;;5003785;28;20049;-66
2024/01/24 10:26:59;;;;;;;46.10;9.48;;;;;;;;;;5007147;28;20041;-67
2024/01/24 10:29:25;;;;;;;63.47;9.95;;;;;;;;;;4993566;28;20216;-66
2024/01/24 10:31:56;;;;;;;45.17;8.43;;;;;;;;;;4981905;28;20094;-67
2024/01/24 10:34:26;;;;;;;47.58;9.07;;;;;;;;;;5001373;28;20049;-66
2024/01/24 10:36:53;;;;;;;49.15;8.45;;;;;;;;;;4987002;28;20153;-67
2024/01/24 10:39:22;;;;;;;51.90;8.48;;;;;;;;;;4999283;28;20402;-66
2024/01/24 10:41:52;;;;;;;45.53;8.85;;;;;;;;;;4983449;28;20453;-67
2024/01/24 10:44:19;;;;;;;47.83;9.55;;;;;;;;;;5001542;28;20042;-66
2024/01/24 10:46:47;;;;;;;46.30;7.97;;;;;;;;;;5002770;28;20042;-68
2024/01/24 10:49:13;;;;;;;37.90;7.20;;;;;;;;;;5002539;28;20045;-68
2024/01/24 10:51:42;;;;;;;41.35;7.95;;;;;;;;;;4998336;28;20046;-66
2024/01/24 10:54:09;;;;;;;50.67;7.95;;;;;;;;;;4984193;28;20050;-66
2024/01/24 10:56:40;;;;;;;40.70;7.32;;;;;;;;;;4983755;28;20065;-66
2024/01/24 10:59:08;;;;;;;49.20;8.98;;;;;;;;;;4977813;28;20056;-66
2024/01/24 11:01:34;;;;;;;42.95;8.82;;;;;;;;;;4999823;28;20084;-66
2024/01/24 11:04:04;;;;;;;43.53;8.20;;;;;;;;;;4988868;28;20057;-66
2024/01/24 11:06:31;;;;;;;62.38;9.70;;;;;;;;;;4999364;28;20057;-66
2024/01/24 11:08:58;;;;;;;47.97;10.57;;;;;;;;;;4994788;28;20077;-67
2024/01/24 11:11:24;;;;;;;38.83;7.13;;;;;;;;;;4980854;28;20145;-66
2024/01/24 11:13:52;;;;;;;38.47;7.68;;;;;;;;;;4980419;28;20050;-67
2024/01/24 11:16:27;;;;;;;35.22;7.13;;;;;;;;;;4994932;28;20457;-66
2024/01/24 11:18:54;;;;;;;36.92;7.72;;;;;;;;;;4983647;28;20045;-67
2024/01/24 11:21:21;;;;;;;46.78;10.82;;;;;;;;;;4996008;28;20160;-67
2024/01/24 11:23:49;;;;;;;41.97;8.52;;;;;;;;;;4966595;28;20489;-67
2024/01/24 11:26:35;;;;;;;46.88;8.15;;;;;;;;;;4996216;28;20046;-67
2024/01/24 11:29:12;;;;;;;44.05;7.57;;;;;;;;;;4994185;28;20054;-67
2024/01/24 11:31:39;;;;;;;47.60;10.95;;;;;;;;;;4978471;28;20427;-67
2024/01/24 11:34:12;;;;;;;32.45;7.57;;;;;;;;;;4973459;28;20050;-67
2024/01/24 11:36:46;;;;;;;44.65;7.22;;;;;;;;;;4996383;28;20133;-70
2024/01/24 11:39:30;;;;;;;35.38;7.90;;;;;;;;;;4994643;28;20042;-68
2024/01/24 11:42:15;;;;;;;39.15;7.88;;;;;;;;;;4983484;28;20052;-69
2024/01/24 11:44:42;;;;;;;39.92;10.50;;;;;;;;;;5006683;28;20100;-67
2024/01/24 11:47:08;;;;;;;41.35;7.30;;;;;;;;;;5002124;28;20049;-67
2024/01/24 11:49:34;;;;;;;45.10;7.43;;;;;;;;;;5000722;28;20051;-67
2024/01/24 11:52:02;;;;;;;39.53;7.90;;;;;;;;;;4995692;28;20038;-67
2024/01/24 11:54:28;;;;;;;45.03;7.47;;;;;;;;;;5002229;28;20129;-67
2024/01/24 11:56:54;;;;;;;35.92;7.70;;;;;;;;;;4987049;28;20128;-67
2024/01/24 11:59:21;;;;;;;46.47;7.93;;;;;;;;;;4985826;28;20061;-67
2024/01/24 12:01:47;;;;;;;39.00;7.43;;;;;;;;;;5002227;28;20117;-67
2024/01/24 12:04:13;;;;;;;46.30;8.30;;;;;;;;;;5002596;28;20157;-67
2024/01/24 12:06:41;;;;;;;41.88;8.73;;;;;;;;;;5005811;28;20381;-67
2024/01/24 12:09:11;;;;;;;36.38;7.80;;;;;;;;;;4998145;28;20049;-67
2024/01/24 12:11:37;;;;;;;35.63;7.53;;;;;;;;;;4994450;28;20946;-67
2024/01/24 12:14:03;;;;;;;42.63;7.57;;;;;;;;;;5010717;28;20080;-66
2024/01/24 12:16:30;;;;;;;39.35;7.90;;;;;;;;;;4994932;28;20041;-66
2024/01/24 12:18:56;;;;;;;41.42;7.53;;;;;;;;;;5005587;28;20468;-67
2024/01/24 12:21:22;;;;;;;40.78;8.23;;;;;;;;;;4971111;28;20101;-67
2024/01/24 12:23:49;;;;;;;39.42;7.60;;;;;;;;;;5001451;28;20050;-67
2024/01/24 12:26:16;;;;;;;38.08;6.75;;;;;;;;;;5006918;28;20079;-67
2024/01/24 12:28:42;;;;;;;34.88;7.88;;;;;;;;;;4977213;28;20049;-67
2024/01/24 12:31:09;;;;;;;40.70;9.73;;;;;;;;;;4994450;28;20053;-67
2024/01/24 12:33:35;;;;;;;36.83;7.10;;;;;;;;;;5005907;28;20137;-67
2024/01/24 12:36:05;;;;;;;39.08;8.07;;;;;;;;;;5000430;28;20034;-69
2024/01/24 12:38:31;;;;;;;40.20;8.43;;;;;;;;;;4989903;28;20046;-69
2024/01/24 12:40:57;;;;;;;43.30;7.97;;;;;;;;;;4989559;28;20041;-75
2024/01/24 12:43:25;;;;;;;38.20;7.35;;;;;;;;;;4989893;28;20037;-67
2024/01/24 12:45:52;;;;;;;45.00;7.70;;;;;;;;;;5001995;28;20069;-67
2024/01/24 12:48:18;;;;;;;41.00;7.90;;;;;;;;;;4963494;28;20637;-67
2024/01/24 12:50:44;;;;;;;40.65;10.65;;;;;;;;;;5000725;28;20057;-67
2024/01/24 12:53:10;;;;;;;46.38;9.43;;;;;;;;;;5000005;28;20513;-67
2024/01/24 12:55:37;;;;;;;39.55;7.38;;;;;;;;;;4996141;28;20125;-67
2024/01/24 12:58:03;;;;;;;43.60;6.43;;;;;;;;;;4988171;28;20474;-67
2024/01/24 13:00:29;;;;;;;50.83;10.50;;;;;;;;;;4983625;28;20124;-67
2024/01/24 13:02:58;;;;;;;54.17;9.98;;;;;;;;;;4988681;28;20038;-67
2024/01/24 13:05:24;;;;;;;44.47;7.60;;;;;;;;;;4993091;28;20058;-67
2024/01/24 13:07:51;;;;;;;65.97;11.32;;;;;;;;;;4993219;28;20111;-67
2024/01/24 13:10:17;;;;;;;47.58;8.70;;;;;;;;;;4996605;28;20050;-67
2024/01/24 13:12:43;;;;;;;45.33;7.45;;;;;;;;;;4991900;28;20116;-67
2024/01/24 13:15:10;;;;;;;40.28;8.30;;;;;;;;;;4994626;28;20055;-67
2024/01/24 13:17:36;;;;;;;36.63;8.48;;;;;;;;;;4998317;28;20046;-67
2024/01/24 13:20:05;;;;;;;44.83;8.80;;;;;;;;;;4997988;28;20490;-67
2024/01/24 13:22:31;;;;;;;43.90;8.40;;;;;;;;;;4987894;28;20405;-67
2024/01/24 13:24:57;;;;;;;44.45;8.80;;;;;;;;;;4998006;28;20038;-67
2024/01/24 13:27:24;;;;;;;46.00;9.40;;;;;;;;;;4990028;28;20045;-67
2024/01/24 13:29:50;;;;;;;43.17;9.75;;;;;;;;;;5004317;28;20475;-67
2024/01/24 13:32:16;;;;;;;38.97;8.02;;;;;;;;;;4985847;28;20046;-67
2024/01/24 13:34:42;;;;;;;44.40;8.73;;;;;;;;;;4989769;28;20408;-67
2024/01/24 13:37:08;;;;;;;38.88;8.45;;;;;;;;;;4982808;28;20030;-67
2024/01/24 13:39:35;;;;;;;39.83;8.20;;;;;;;;;;5000263;28;20057;-67
2024/01/24 13:42:01;;;;;;;46.03;9.95;;;;;;;;;;5003990;28;20497;-67
2024/01/24 13:44:27;;;;;;;51.30;9.70;;;;;;;;;;4999884;28;20383;-67
2024/01/24 13:46:54;;;;;;;43.95;9.75;;;;;;;;;;5001042;28;20438;-68
2024/01/24 13:49:20;;;;;;;47.13;8.13;;;;;;;;;;5001223;28;20421;-67
2024/01/24 13:51:46;;;;;;;47.97;9.73;;;;;;;;;;4989233;28;20064;-67
2024/01/24 13:54:12;;;;;;;37.80;8.00;;;;;;;;;;4969455;28;20050;-67
2024/01/24 13:56:39;;;;;;;47.70;9.02;;;;;;;;;;4984894;28;20178;-67
2024/01/24 13:59:05;;;;;;;56.63;9.75;;;;;;;;;;4997775;28;20162;-67
2024/01/24 14:01:31;;;;;;;57.40;9.60;;;;;;;;;;5000644;28;20462;-67
2024/01/24 14:03:57;;;;;;;60.15;10.23;;;;;;;;;;4976375;28;20054;-67
2024/01/24 14:06:23;;;;;;;47.45;8.57;;;;;;;;;;4998699;28;20161;-67
2024/01/24 14:08:49;;;;;;;49.80;8.40;;;;;;;;;;5000641;28;20106;-67
2024/01/24 14:11:16;;;;;;;41.42;8.55;;;;;;;;;;4986562;28;20046;-67
2024/01/24 14:13:42;;;;;;;51.17;8.43;;;;;;;;;;4987207;28;20152;-69
2024/01/24 14:16:08;;;;;;;54.60;8.85;;;;;;;;;;4986043;28;20046;-67
2024/01/24 14:18:35;;;;;;;56.17;9.38;;;;;;;;;;4986066;28;20077;-67
2024/01/24 14:21:01;;;;;;;53.50;8.40;;;;;;;;;;4988276;28;20075;-66
2024/01/24 14:23:27;;;;;;;46.25;8.18;;;;;;;;;;4995906;28;20351;-67
2024/01/24 14:25:53;;;;;;;54.67;9.52;;;;;;;;;;4988344;28;20430;-67